createdAt,value
2017-07-15T00:00:13.857Z,99.90
2017-07-15T00:02:44.098Z,99.90
2017-07-15T00:05:13.093Z,99.90
2017-07-15T00:07:41.893Z,99.90
2017-07-15T00:10:10.450Z,99.90
2017-07-15T00:12:40.177Z,99.90
2017-07-15T00:15:09.257Z,99.90
2017-07-15T00:17:38.563Z,99.90
2017-07-15T00:20:07.996Z,99.90
2017-07-15T00:22:36.648Z,99.90
2017-07-15T00:25:05.953Z,99.90
2017-07-15T00:27:34.891Z,99.90
2017-07-15T00:30:03.533Z,99.90
2017-07-15T00:32:32.873Z,99.90
2017-07-15T00:35:01.670Z,99.90
2017-07-15T00:37:30.389Z,99.90
2017-07-15T00:39:58.501Z,99.90
2017-07-15T00:42:27.276Z,99.90
2017-07-15T00:44:56.629Z,99.90
2017-07-15T00:47:25.265Z,99.90
2017-07-15T00:49:54.757Z,99.90
2017-07-15T00:52:24.305Z,99.90
2017-07-15T00:54:52.861Z,99.90
2017-07-15T00:57:22.694Z,99.90
2017-07-15T00:59:51.545Z,99.90
2017-07-15T01:02:20.149Z,99.90
2017-07-15T01:04:49.837Z,99.90
2017-07-15T01:07:18.597Z,99.90
2017-07-15T01:09:47.387Z,99.90
2017-07-15T01:12:16.057Z,99.90
2017-07-15T01:14:44.713Z,99.90
2017-07-15T01:17:14.112Z,99.90
2017-07-15T01:19:42.409Z,99.90
2017-07-15T01:22:11.260Z,99.90
2017-07-15T01:24:39.765Z,99.90
2017-07-15T01:27:08.026Z,98.90
2017-07-15T01:29:36.953Z,98.40
2017-07-15T01:32:05.860Z,95.90
2017-07-15T01:34:34.552Z,95.90
2017-07-15T01:37:02.724Z,95.80
2017-07-15T01:39:31.565Z,93.80
2017-07-15T01:42:00.197Z,93.50
2017-07-15T01:44:28.799Z,93.30
2017-07-15T01:46:56.941Z,93.30
2017-07-15T01:49:25.601Z,93.40
2017-07-15T01:51:56.065Z,93.30
2017-07-15T01:54:24.777Z,92.90
2017-07-15T01:56:53.622Z,92.80
2017-07-15T01:59:23.133Z,92.10
2017-07-15T02:01:51.713Z,92.10
2017-07-15T02:04:21.149Z,92.30
2017-07-15T02:06:49.246Z,92.30
2017-07-15T02:09:18.213Z,92.00
2017-07-15T02:11:47.105Z,92.00
2017-07-15T02:14:15.761Z,91.40
2017-07-15T02:16:43.968Z,91.00
2017-07-15T02:19:13.008Z,91.00
2017-07-15T02:21:41.854Z,91.00
2017-07-15T02:24:10.745Z,91.10
2017-07-15T02:26:38.970Z,90.90
2017-07-15T02:29:07.696Z,90.90
2017-07-15T02:31:36.548Z,91.00
2017-07-15T02:34:05.089Z,91.00
2017-07-15T02:36:33.844Z,90.60
2017-07-15T02:39:03.109Z,90.00
2017-07-15T02:41:32.053Z,90.00
2017-07-15T02:44:00.770Z,89.60
2017-07-15T02:46:29.737Z,89.40
2017-07-15T02:48:58.633Z,88.30
2017-07-15T02:51:26.757Z,86.90
2017-07-15T02:53:55.373Z,85.50
2017-07-15T02:56:24.829Z,84.80
2017-07-15T02:58:53.465Z,84.80
2017-07-15T03:01:22.969Z,82.70
2017-07-15T03:03:52.533Z,81.90
2017-07-15T03:06:21.401Z,81.90
2017-07-15T03:08:49.953Z,80.20
2017-07-15T03:11:19.594Z,79.10
2017-07-15T03:13:48.154Z,79.00
2017-07-15T03:16:16.633Z,77.40
2017-07-15T03:18:46.183Z,77.40
2017-07-15T03:21:14.929Z,77.20
2017-07-15T03:23:44.225Z,77.50
2017-07-15T03:26:14.161Z,77.50
2017-07-15T03:28:42.910Z,77.50
2017-07-15T03:31:11.857Z,77.60
2017-07-15T03:33:40.613Z,77.90
2017-07-15T03:36:10.242Z,77.00
2017-07-15T03:38:38.942Z,77.00
2017-07-15T03:41:07.902Z,76.40
2017-07-15T03:43:37.327Z,75.70
2017-07-15T03:46:06.129Z,75.60
2017-07-15T03:48:35.124Z,75.50
2017-07-15T03:51:03.781Z,75.80
2017-07-15T03:53:33.369Z,75.90
2017-07-15T03:56:02.465Z,75.80
2017-07-15T03:58:31.357Z,75.90
2017-07-15T04:01:00.196Z,76.10
2017-07-15T04:03:28.989Z,75.90
2017-07-15T04:05:57.650Z,76.20
2017-07-15T04:08:26.950Z,75.80
2017-07-15T04:10:56.677Z,76.30
2017-07-15T04:13:24.769Z,76.20
2017-07-15T04:15:53.421Z,77.30
2017-07-15T04:18:21.727Z,77.10
2017-07-15T04:20:50.220Z,76.70
2017-07-15T04:23:18.360Z,75.90
2017-07-15T04:25:46.585Z,75.90
2017-07-15T04:28:14.744Z,75.70
2017-07-15T04:30:42.885Z,74.80
2017-07-15T04:33:11.106Z,74.10
2017-07-15T04:35:39.234Z,74.00
2017-07-15T04:38:07.897Z,73.50
2017-07-15T04:40:36.160Z,72.40
2017-07-15T04:43:04.785Z,72.00
2017-07-15T04:45:34.028Z,71.00
2017-07-15T04:48:02.879Z,70.90
2017-07-15T04:50:32.617Z,70.50
2017-07-15T04:53:01.347Z,69.30
2017-07-15T04:55:30.212Z,67.20
2017-07-15T04:57:58.858Z,65.30
2017-07-15T05:00:27.525Z,63.50
2017-07-15T05:02:55.849Z,61.20
2017-07-15T05:05:24.654Z,59.50
2017-07-15T05:07:53.412Z,59.00
2017-07-15T05:10:22.413Z,59.70
2017-07-15T05:12:51.199Z,59.60
2017-07-15T05:15:19.358Z,60.10
2017-07-15T05:17:49.046Z,59.80
2017-07-15T05:20:17.553Z,59.80
2017-07-15T05:22:46.237Z,59.80
2017-07-15T05:25:15.674Z,57.70
2017-07-15T05:27:44.376Z,57.60
2017-07-15T05:30:13.021Z,56.80
2017-07-15T05:32:42.467Z,54.70
2017-07-15T05:35:11.127Z,54.60
2017-07-15T05:37:39.926Z,54.20
2017-07-15T05:40:08.971Z,54.00
2017-07-15T05:42:37.158Z,53.20
2017-07-15T05:45:06.499Z,57.20
2017-07-15T05:47:34.885Z,56.60
2017-07-15T05:50:03.658Z,55.30
2017-07-15T05:52:32.562Z,55.90
2017-07-15T05:55:01.605Z,55.50
2017-07-15T05:57:30.177Z,54.70
2017-07-15T05:59:58.818Z,54.50
2017-07-15T06:02:27.182Z,54.60
2017-07-15T06:04:55.767Z,55.40
2017-07-15T06:07:25.593Z,53.70
2017-07-15T06:09:54.549Z,53.60
2017-07-15T06:12:23.390Z,52.60
2017-07-15T06:14:52.285Z,51.30
2017-07-15T06:17:20.984Z,50.90
2017-07-15T06:19:49.634Z,49.90
2017-07-15T06:22:18.325Z,49.80
2017-07-15T06:24:47.330Z,48.60
2017-07-15T06:27:16.078Z,48.10
2017-07-15T06:29:44.586Z,47.30
2017-07-15T06:32:13.322Z,48.40
2017-07-15T06:34:41.977Z,48.20
2017-07-15T06:37:10.776Z,48.40
2017-07-15T06:39:39.773Z,49.20
2017-07-15T06:42:08.687Z,48.90
2017-07-15T06:44:37.222Z,48.90
2017-07-15T06:47:07.014Z,49.30
2017-07-15T06:49:35.852Z,49.30
2017-07-15T06:52:04.557Z,49.10
2017-07-15T06:54:34.237Z,49.90
2017-07-15T06:57:03.101Z,49.90
2017-07-15T06:59:32.521Z,48.90
2017-07-15T07:02:01.414Z,48.90
2017-07-15T07:04:30.318Z,49.00
2017-07-15T07:06:59.209Z,48.50
2017-07-15T07:09:28.305Z,48.00
2017-07-15T07:11:57.198Z,47.50
2017-07-15T07:14:26.049Z,46.40
2017-07-15T07:16:54.689Z,45.40
2017-07-15T07:19:23.299Z,45.60
2017-07-15T07:21:52.068Z,44.30
2017-07-15T07:24:20.945Z,43.90
2017-07-15T07:26:49.901Z,43.50
2017-07-15T07:29:18.846Z,42.90
2017-07-15T07:31:47.889Z,42.70
2017-07-15T07:34:16.211Z,42.80
2017-07-15T07:36:44.336Z,42.80
2017-07-15T07:39:12.602Z,43.60
2017-07-15T07:41:40.788Z,43.70
2017-07-15T07:44:09.017Z,44.20
2017-07-15T07:46:37.882Z,44.00
2017-07-15T07:49:05.981Z,44.20
2017-07-15T07:51:34.537Z,44.60
2017-07-15T07:54:04.370Z,44.60
2017-07-15T07:56:33.327Z,44.50
2017-07-15T07:59:02.084Z,45.00
2017-07-15T08:01:30.755Z,45.10
2017-07-15T08:03:59.314Z,45.40
2017-07-15T08:06:28.013Z,45.40
2017-07-15T08:08:56.321Z,45.40
2017-07-15T08:11:24.625Z,45.00
2017-07-15T08:13:52.762Z,45.20
2017-07-15T08:16:21.029Z,45.60
2017-07-15T08:18:49.160Z,45.60
2017-07-15T08:21:17.333Z,45.40
2017-07-15T08:23:45.637Z,45.80
2017-07-15T08:26:13.823Z,45.90
2017-07-15T08:28:42.027Z,45.40
2017-07-15T08:31:10.777Z,45.30
2017-07-15T08:33:39.458Z,45.20
2017-07-15T08:36:08.805Z,44.80
2017-07-15T08:38:37.649Z,44.80
2017-07-15T08:41:07.068Z,44.80
2017-07-15T08:43:35.217Z,44.80
2017-07-15T08:46:03.501Z,44.50
2017-07-15T08:48:31.633Z,47.30
2017-07-15T08:50:59.757Z,44.70
2017-07-15T08:53:28.107Z,46.00
2017-07-15T08:55:56.249Z,50.90
2017-07-15T08:58:24.462Z,51.30
2017-07-15T09:00:52.790Z,51.60
2017-07-15T09:03:20.926Z,51.80
2017-07-15T09:05:49.054Z,51.30
2017-07-15T09:08:17.317Z,51.50
2017-07-15T09:10:45.487Z,51.60
2017-07-15T09:13:13.749Z,51.30
2017-07-15T09:15:42.362Z,51.30
2017-07-15T09:18:10.566Z,52.40
2017-07-15T09:20:39.320Z,53.50
2017-07-15T09:23:08.313Z,54.90
2017-07-15T09:25:37.124Z,56.20
2017-07-15T09:28:05.663Z,56.70
2017-07-15T09:30:35.299Z,55.10
2017-07-15T09:33:03.857Z,55.10
2017-07-15T09:35:32.546Z,56.00
2017-07-15T09:38:01.433Z,55.80
2017-07-15T09:40:30.779Z,54.50
2017-07-15T09:42:59.321Z,54.40
2017-07-15T09:45:27.593Z,55.40
2017-07-15T09:47:55.773Z,55.70
2017-07-15T09:50:23.928Z,55.20
2017-07-15T09:52:53.402Z,52.90
2017-07-15T09:55:21.570Z,53.30
2017-07-15T09:57:49.661Z,53.90
2017-07-15T10:00:17.960Z,52.50
2017-07-15T10:02:46.642Z,52.10
2017-07-15T10:05:15.385Z,52.00
2017-07-15T10:07:44.088Z,51.50
2017-07-15T10:10:12.774Z,52.30
2017-07-15T10:12:41.434Z,51.90
2017-07-15T10:15:10.907Z,52.70
2017-07-15T10:17:40.505Z,51.70
2017-07-15T10:20:09.026Z,51.70
2017-07-15T10:22:37.702Z,50.40
2017-07-15T10:25:06.301Z,52.00
2017-07-15T10:27:35.204Z,53.20
2017-07-15T10:30:04.354Z,52.90
2017-07-15T10:32:32.928Z,52.80
2017-07-15T10:35:01.552Z,52.10
2017-07-15T10:37:30.437Z,51.80
2017-07-15T10:39:58.620Z,52.30
2017-07-15T10:42:26.842Z,51.30
2017-07-15T10:44:55.165Z,51.70
2017-07-15T10:47:23.281Z,52.10
2017-07-15T10:49:51.417Z,55.00
2017-07-15T10:52:19.753Z,57.70
2017-07-15T10:54:48.488Z,56.90
2017-07-15T10:57:17.557Z,56.50
2017-07-15T10:59:45.913Z,55.90
2017-07-15T11:02:14.652Z,55.10
2017-07-15T11:04:43.349Z,54.20
2017-07-15T11:07:11.664Z,54.40
2017-07-15T11:09:40.345Z,53.60
2017-07-15T11:12:08.494Z,53.40
2017-07-15T11:14:36.770Z,52.80
2017-07-15T11:17:05.077Z,52.20
2017-07-15T11:19:33.189Z,52.70
2017-07-15T11:22:01.543Z,52.50
2017-07-15T11:24:29.758Z,52.10
2017-07-15T11:26:58.005Z,51.60
2017-07-15T11:29:26.314Z,51.40
2017-07-15T11:31:54.493Z,52.00
2017-07-15T11:34:22.717Z,52.00
2017-07-15T11:36:50.941Z,55.30
2017-07-15T11:39:19.077Z,61.40
2017-07-15T11:41:47.174Z,58.70
2017-07-15T11:44:16.675Z,58.30
2017-07-15T11:46:45.416Z,57.70
2017-07-15T11:49:14.078Z,57.10
2017-07-15T11:51:42.846Z,62.10
2017-07-15T11:54:12.316Z,60.70
2017-07-15T11:56:40.854Z,60.70
2017-07-15T11:59:09.645Z,58.90
2017-07-15T12:01:38.245Z,59.40
2017-07-15T12:04:06.382Z,59.40
2017-07-15T12:06:36.245Z,57.40
2017-07-15T12:09:05.237Z,57.30
2017-07-15T12:11:34.235Z,57.90
2017-07-15T12:14:03.224Z,59.30
2017-07-15T12:16:32.222Z,63.10
2017-07-15T12:19:00.732Z,65.80
2017-07-15T12:21:29.009Z,66.80
2017-07-15T12:23:57.824Z,68.20
2017-07-15T12:26:26.561Z,68.70
2017-07-15T12:28:55.353Z,70.40
2017-07-15T12:31:24.049Z,70.60
2017-07-15T12:33:52.793Z,69.90
2017-07-15T12:36:22.228Z,68.10
2017-07-15T12:38:50.408Z,68.00
2017-07-15T12:41:19.296Z,66.60
2017-07-15T12:43:48.294Z,67.20
2017-07-15T12:46:16.430Z,69.20
2017-07-15T12:48:45.843Z,68.80
2017-07-15T12:51:15.534Z,67.60
2017-07-15T12:53:43.723Z,67.60
2017-07-15T12:56:11.913Z,67.90
2017-07-15T12:58:41.518Z,74.90
2017-07-15T13:01:10.225Z,74.90
2017-07-15T13:03:38.361Z,75.60
2017-07-15T13:06:07.962Z,77.10
2017-07-15T13:08:36.145Z,77.10
2017-07-15T13:11:04.321Z,77.20
2017-07-15T13:13:32.565Z,76.80
2017-07-15T13:16:00.741Z,75.40
2017-07-15T13:18:28.955Z,75.00
2017-07-15T13:20:57.361Z,75.20
2017-07-15T13:23:25.548Z,76.70
2017-07-15T13:25:54.288Z,77.70
2017-07-15T13:28:22.593Z,78.20
2017-07-15T13:30:51.141Z,78.60
2017-07-15T13:33:19.837Z,77.50
2017-07-15T13:35:48.089Z,77.60
2017-07-15T13:38:16.274Z,76.80
2017-07-15T13:40:44.409Z,76.40
2017-07-15T13:43:12.758Z,76.50
2017-07-15T13:45:40.930Z,78.70
2017-07-15T13:48:09.161Z,79.70
2017-07-15T13:50:37.481Z,81.10
2017-07-15T13:53:05.618Z,80.20
2017-07-15T13:55:33.769Z,80.60
2017-07-15T13:58:02.008Z,80.90
2017-07-15T14:00:30.209Z,80.50
2017-07-15T14:02:58.389Z,80.80
2017-07-15T14:05:26.757Z,79.60
2017-07-15T14:07:54.886Z,77.80
2017-07-15T14:10:23.021Z,77.70
2017-07-15T14:12:51.285Z,77.40
2017-07-15T14:15:19.397Z,77.40
2017-07-15T14:17:47.505Z,76.70
2017-07-15T14:20:16.317Z,75.50
2017-07-15T14:22:45.977Z,74.80
2017-07-15T14:25:14.725Z,74.60
2017-07-15T14:27:43.608Z,74.30
2017-07-15T14:30:12.859Z,73.50
2017-07-15T14:32:41.509Z,73.30
2017-07-15T14:35:11.000Z,71.90
2017-07-15T14:37:40.244Z,70.90
2017-07-15T14:40:08.885Z,70.90
2017-07-15T14:42:38.331Z,68.60
2017-07-15T14:45:06.921Z,68.60
2017-07-15T14:47:35.741Z,68.80
2017-07-15T14:50:04.633Z,69.00
2017-07-15T14:52:33.093Z,68.50
2017-07-15T14:55:01.730Z,67.90
2017-07-15T14:57:31.321Z,70.10
2017-07-15T15:00:00.874Z,69.60
2017-07-15T15:02:29.678Z,69.50
2017-07-15T15:04:58.222Z,68.10
2017-07-15T15:07:26.401Z,67.50
2017-07-15T15:09:54.978Z,66.80
2017-07-15T15:12:23.321Z,67.10
2017-07-15T15:14:51.970Z,66.20
2017-07-15T15:17:20.144Z,65.40
2017-07-15T15:19:49.105Z,65.70
2017-07-15T15:22:19.913Z,66.20
2017-07-15T15:24:49.808Z,66.10
2017-07-15T15:27:18.938Z,66.90
2017-07-15T15:29:47.694Z,66.60
2017-07-15T15:32:15.905Z,65.10
2017-07-15T15:34:44.717Z,65.20
2017-07-15T15:37:14.013Z,66.10
2017-07-15T15:39:42.169Z,66.00
2017-07-15T15:42:10.435Z,66.00
2017-07-15T15:44:38.569Z,66.10
2017-07-15T15:47:06.729Z,66.10
2017-07-15T15:49:34.985Z,66.00
2017-07-15T15:52:04.619Z,66.10
2017-07-15T15:54:33.633Z,66.20
2017-07-15T15:57:01.945Z,66.10
2017-07-15T15:59:30.956Z,66.30
2017-07-15T16:01:59.124Z,66.50
2017-07-15T16:04:27.431Z,66.70
2017-07-15T16:06:55.539Z,66.80
2017-07-15T16:09:23.751Z,67.00
2017-07-15T16:11:52.033Z,67.20
2017-07-15T16:14:20.205Z,67.50
2017-07-15T16:16:48.385Z,67.60
2017-07-15T16:19:21.445Z,68.00
2017-07-15T16:21:50.504Z,68.20
2017-07-15T16:24:18.653Z,68.40
2017-07-15T16:26:47.017Z,68.80
2017-07-15T16:29:15.163Z,69.30
2017-07-15T16:31:43.346Z,69.50
2017-07-15T16:34:11.695Z,70.50
2017-07-15T16:36:39.882Z,70.50
2017-07-15T16:39:08.152Z,70.70
2017-07-15T16:41:36.483Z,71.40
2017-07-15T16:44:05.197Z,70.90
2017-07-15T16:46:33.344Z,70.80
2017-07-15T16:49:01.649Z,70.40
2017-07-15T16:51:29.857Z,70.30
2017-07-15T16:53:58.033Z,70.40
2017-07-15T16:56:26.320Z,70.30
2017-07-15T16:58:54.453Z,70.30
2017-07-15T17:01:22.577Z,70.30
2017-07-15T17:03:50.882Z,70.30
2017-07-15T17:06:19.094Z,69.00
2017-07-15T17:08:47.301Z,68.50
2017-07-15T17:11:15.598Z,68.40
2017-07-15T17:13:43.737Z,67.90
2017-07-15T17:16:11.949Z,67.90
2017-07-15T17:18:40.173Z,67.90
2017-07-15T17:21:08.517Z,67.80
2017-07-15T17:23:36.689Z,67.10
2017-07-15T17:26:05.502Z,66.60
2017-07-15T17:28:34.906Z,66.10
2017-07-15T17:31:04.441Z,65.60
2017-07-15T17:33:33.136Z,65.60
2017-07-15T17:36:01.256Z,65.40
2017-07-15T17:38:30.095Z,65.20
2017-07-15T17:40:59.242Z,65.30
2017-07-15T17:43:27.809Z,65.30
2017-07-15T17:45:55.901Z,65.40
2017-07-15T17:48:24.205Z,65.50
2017-07-15T17:50:52.626Z,65.50
2017-07-15T17:53:21.281Z,66.50
2017-07-15T17:55:50.193Z,65.80
2017-07-15T17:58:18.321Z,66.00
2017-07-15T18:00:47.810Z,66.50
2017-07-15T18:03:16.471Z,66.30
2017-07-15T18:05:45.218Z,66.60
2017-07-15T18:08:14.634Z,67.00
2017-07-15T18:10:42.913Z,67.00
2017-07-15T18:13:11.147Z,67.30
2017-07-15T18:15:39.441Z,67.50
2017-07-15T18:18:07.716Z,67.50
2017-07-15T18:20:37.284Z,68.30
2017-07-15T18:23:05.825Z,68.20
2017-07-15T18:25:34.096Z,68.50
2017-07-15T18:28:02.231Z,68.70
2017-07-15T18:30:30.555Z,68.90
2017-07-15T18:32:58.873Z,69.30
2017-07-15T18:35:27.014Z,69.60
2017-07-15T18:37:55.825Z,69.90
2017-07-15T18:40:24.821Z,70.20
2017-07-15T18:42:53.628Z,70.40
2017-07-15T18:45:22.202Z,70.50
2017-07-15T18:47:50.900Z,70.60
2017-07-15T18:50:19.597Z,70.70
2017-07-15T18:52:48.461Z,70.90
2017-07-15T18:55:16.805Z,71.10
2017-07-15T18:57:44.971Z,71.20
2017-07-15T19:00:13.110Z,71.20
2017-07-15T19:02:41.494Z,71.40
2017-07-15T19:05:09.668Z,71.60
2017-07-15T19:07:37.825Z,71.70
2017-07-15T19:10:06.121Z,72.00
2017-07-15T19:12:34.271Z,72.10
2017-07-15T19:15:02.401Z,72.20
2017-07-15T19:17:30.750Z,72.20
2017-07-15T19:19:58.930Z,72.40
2017-07-15T19:22:27.637Z,72.50
2017-07-15T19:24:56.581Z,72.50
2017-07-15T19:27:25.391Z,72.40
2017-07-15T19:29:53.970Z,72.30
2017-07-15T19:32:22.414Z,72.30
2017-07-15T19:34:51.824Z,72.10
2017-07-15T19:37:20.413Z,72.00
2017-07-15T19:39:49.113Z,72.10
2017-07-15T19:42:17.313Z,72.10
2017-07-15T19:44:46.081Z,72.20
2017-07-15T19:47:15.125Z,72.00
2017-07-15T19:49:43.882Z,72.10
2017-07-15T19:52:12.421Z,72.10
2017-07-15T19:54:42.254Z,72.20
2017-07-15T19:57:11.102Z,72.10
2017-07-15T19:59:39.860Z,72.30
2017-07-15T20:02:08.585Z,72.20
2017-07-15T20:04:38.972Z,72.00
2017-07-15T20:07:07.623Z,71.90
2017-07-15T20:09:37.153Z,72.00
2017-07-15T20:12:05.838Z,71.90
2017-07-15T20:14:34.494Z,72.20
2017-07-15T20:17:03.945Z,72.30
2017-07-15T20:19:32.595Z,72.40
2017-07-15T20:22:01.290Z,72.20
2017-07-15T20:24:30.194Z,72.10
2017-07-15T20:26:58.985Z,72.10
2017-07-15T20:29:27.542Z,72.10
2017-07-15T20:31:55.856Z,72.40
2017-07-15T20:34:24.686Z,72.40
2017-07-15T20:36:58.702Z,72.40
2017-07-15T20:39:27.493Z,72.20
2017-07-15T20:41:55.701Z,72.40
2017-07-15T20:44:24.481Z,72.50
2017-07-15T20:46:53.181Z,72.50
2017-07-15T20:49:21.357Z,72.60
2017-07-15T20:51:49.809Z,72.90
2017-07-15T20:54:17.948Z,72.90
2017-07-15T20:56:46.137Z,73.10
2017-07-15T20:59:14.450Z,73.10
2017-07-15T21:01:42.568Z,73.00
2017-07-15T21:04:10.689Z,72.90
2017-07-15T21:06:40.456Z,74.20
2017-07-15T21:09:08.897Z,73.20
2017-07-15T21:11:37.597Z,73.50
2017-07-15T21:14:06.489Z,73.50
2017-07-15T21:16:35.184Z,73.70
2017-07-15T21:19:03.349Z,73.90
2017-07-15T21:21:31.650Z,73.70
2017-07-15T21:23:59.818Z,73.60
2017-07-15T21:26:27.965Z,73.50
2017-07-15T21:28:56.221Z,73.50
2017-07-15T21:31:24.350Z,73.40
2017-07-15T21:33:52.521Z,73.40
2017-07-15T21:36:20.950Z,73.30
2017-07-15T21:38:49.156Z,73.30
2017-07-15T21:41:17.245Z,73.30
2017-07-15T21:43:45.517Z,73.30
2017-07-15T21:46:13.639Z,73.10
2017-07-15T21:48:41.684Z,73.20
2017-07-15T21:51:09.999Z,73.10
2017-07-15T21:53:38.088Z,73.10
2017-07-15T21:56:07.485Z,73.10
2017-07-15T21:58:36.293Z,73.10
2017-07-15T22:01:05.776Z,73.30
2017-07-15T22:03:34.008Z,73.20
2017-07-15T22:06:02.664Z,73.80
2017-07-15T22:08:30.857Z,73.50
2017-07-15T22:10:59.568Z,73.50
2017-07-15T22:13:28.177Z,73.60
2017-07-15T22:15:56.776Z,73.40
2017-07-15T22:18:25.408Z,73.10
2017-07-15T22:20:54.117Z,72.90
2017-07-15T22:23:22.670Z,72.70
2017-07-15T22:25:51.337Z,72.50
2017-07-15T22:28:20.195Z,72.10
2017-07-15T22:30:48.744Z,72.00
2017-07-15T22:33:16.880Z,72.10
2017-07-15T22:35:45.079Z,72.10
2017-07-15T22:38:13.295Z,72.10
2017-07-15T22:40:42.051Z,72.00
2017-07-15T22:43:10.716Z,72.00
2017-07-15T22:45:40.189Z,72.30
2017-07-15T22:48:08.671Z,72.20
2017-07-15T22:50:37.475Z,72.50
2017-07-15T22:53:06.075Z,72.30
2017-07-15T22:55:34.167Z,72.50
2017-07-15T22:58:03.715Z,73.10
2017-07-15T23:00:32.207Z,73.20
2017-07-15T23:03:00.819Z,73.20
2017-07-15T23:05:30.227Z,74.40
2017-07-15T23:07:59.660Z,74.30
2017-07-15T23:10:28.328Z,73.70
2017-07-15T23:12:57.955Z,74.20
2017-07-15T23:15:26.382Z,74.10
2017-07-15T23:17:54.994Z,74.50
2017-07-15T23:20:23.217Z,75.10
2017-07-15T23:22:51.299Z,75.80
2017-07-15T23:25:19.415Z,75.70
2017-07-15T23:27:47.618Z,75.60
2017-07-15T23:30:15.751Z,76.10
2017-07-15T23:32:43.852Z,76.40
2017-07-15T23:35:12.147Z,77.10
2017-07-15T23:37:40.879Z,77.60
2017-07-15T23:53:15.138Z,78.10
2017-07-15T23:55:43.265Z,73.00
2017-07-15T23:58:11.363Z,73.10
